Decoded Metar for YCIN (CURTIN/DERBY in _UNIDENTIFIED) (IATA:N/A) | Meteo·Mobile Aviation Weather
aviador You're here:

YCIN Decoded Metar

CURTIN/DERBY in _UNIDENTIFIED
Report Time2019-01-20 10:00:00
UTC Time2019-01-20 10:36:06
Flight Rules vfr VFR
Wind100° at 03 kt
W.Decomp.*RWY 11: 2.9 kt HW 0.6 kt LCW
W.Rank100° ranks 19
Current wind is below 100° avg. (7.2)
Visibility9999 m
Phenomena:N/A
Clouds:N/A
Expected CloudBase > 6,400 ft AGL from Temp-Dew spread
CeilingNone
Temp38°C (ISA +24)
Dew Point22°C (40% RH)
Heat Index43.4°C
QNH1003 hPa
Density Alt3,642 ft
Elevation299 ft
Report Wrong Elevation
Raw Report
YCIN 201000Z AUTO 10003KT 9999 // NCD 38/22 Q1003=

Extra information for YCIN:More info

Metar Taf Metar & Taf Last 4 Metars F.Rules Stats Wind Profile Meteogram Temp Stats Airport Information Weather charts Add Link Nearby VenuesMetar ALERT Operation Metar Decoded Social comments